Time;durP1;ratioP1;P1;durP2;ratioP2;P2;SDS_P1;SDS_P2;PMS_P1;PMS_P2;Temp;Humidity;BMP_temperature;BMP_pressure;BME280_temperature;BME280_humidity;BME280_pressure;Samples;Min_cycle;Max_cycle;Signal;HPM_P1;HPM_P2
2023/06/29 00:01:07;;;;;;;8.03;3.40;;;;;;;21.98;72.94;98933.88;6245884;23;20222;-86
2023/06/29 00:03:33;;;;;;;9.83;3.57;;;;;;;21.95;72.85;98936.84;6245599;23;20267;-85
2023/06/29 00:05:59;;;;;;;6.50;3.63;;;;;;;21.91;73.45;98933.63;6245623;23;20145;-85
2023/06/29 00:08:29;;;;;;;6.77;3.20;;;;;;;22.04;72.11;98939.38;6245923;23;20478;-86
2023/06/29 00:10:56;;;;;;;7.83;3.67;;;;;;;22.17;70.83;98933.63;6247211;23;20208;-86
2023/06/29 00:13:24;;;;;;;6.10;3.57;;;;;;;22.20;70.44;98927.97;6247432;23;20152;-86
2023/06/29 00:15:49;;;;;;;9.80;4.00;;;;;;;22.16;70.60;98920.44;6220687;23;20153;-86
2023/06/29 00:18:15;;;;;;;5.07;3.07;;;;;;;22.14;70.76;98917.09;6220916;23;20153;-86
2023/06/29 00:20:42;;;;;;;4.90;3.13;;;;;;;22.11;71.04;98917.41;6247826;23;20596;-88
2023/06/29 00:23:08;;;;;;;7.00;3.97;;;;;;;22.13;70.96;98915.41;6220808;23;20185;-86
2023/06/29 00:25:34;;;;;;;5.63;3.53;;;;;;;22.13;70.58;98926.09;6220916;23;20259;-86
2023/06/29 00:28:01;;;;;;;5.73;3.30;;;;;;;22.10;70.98;98927.25;6221299;23;20157;-86
2023/06/29 00:30:27;;;;;;;7.23;4.23;;;;;;;22.10;70.87;98929.91;6220933;23;20244;-86
2023/06/29 00:32:52;;;;;;;7.77;4.20;;;;;;;22.13;70.98;98926.94;6247270;23;20168;-86
2023/06/29 00:35:17;;;;;;;8.53;3.80;;;;;;;22.18;70.96;98924.63;6221229;23;20149;-86
2023/06/29 00:37:43;;;;;;;8.03;4.10;;;;;;;22.13;71.17;98910.91;6247262;23;20166;-86
2023/06/29 00:40:09;;;;;;;7.37;3.70;;;;;;;22.11;70.92;98918.25;6247134;23;20156;-86
2023/06/29 00:42:35;;;;;;;7.20;4.07;;;;;;;22.06;71.32;98931.25;6247755;23;20240;-86
2023/06/29 00:45:02;;;;;;;7.00;3.97;;;;;;;22.08;71.36;98931.91;6247440;23;20211;-86
2023/06/29 00:47:29;;;;;;;8.43;4.40;;;;;;;22.06;71.30;98935.75;6247127;23;20236;-86
2023/06/29 00:49:55;;;;;;;10.70;4.67;;;;;;;22.07;71.20;98930.22;6247063;23;20577;-86
2023/06/29 00:52:21;;;;;;;8.57;4.90;;;;;;;22.06;71.32;98939.25;6247384;23;20141;-86
2023/06/29 00:54:48;;;;;;;7.63;4.53;;;;;;;22.04;71.49;98936.72;6246788;23;20169;-86
2023/06/29 00:57:13;;;;;;;9.50;4.97;;;;;;;22.06;71.43;98944.59;6247140;23;20149;-86
2023/06/29 00:59:38;;;;;;;7.50;4.50;;;;;;;21.99;71.72;98940.84;6246983;23;20565;-86
2023/06/29 01:02:04;;;;;;;7.03;4.40;;;;;;;22.03;72.05;98940.41;6247430;23;20180;-86
2023/06/29 01:04:33;;;;;;;9.87;4.50;;;;;;;22.06;71.71;98933.06;6220375;23;20226;-86
2023/06/29 01:07:07;;;;;;;7.57;4.53;;;;;;;21.99;71.92;98923.00;6246884;23;20149;-86
2023/06/29 01:09:33;;;;;;;11.27;4.77;;;;;;;21.87;72.77;98920.78;6246801;23;20164;-86
2023/06/29 01:12:01;;;;;;;9.00;4.90;;;;;;;21.87;72.72;98918.09;6246896;23;20145;-86
2023/06/29 01:14:32;;;;;;;9.17;4.53;;;;;;;21.89;72.50;98905.44;6246833;23;20145;-86
2023/06/29 01:16:58;;;;;;;9.27;4.97;;;;;;;21.79;74.20;98902.00;6247038;23;20224;-86
2023/06/29 01:19:28;;;;;;;8.57;4.77;;;;;;;21.67;75.17;98897.94;6220279;23;20185;-86
2023/06/29 01:22:06;;;;;;;10.73;5.17;;;;;;;21.65;75.54;98903.41;6246595;23;20173;-86
2023/06/29 01:24:39;;;;;;;8.40;4.87;;;;;;;21.67;75.28;98905.94;6246588;23;20172;-87
2023/06/29 01:27:07;;;;;;;7.83;3.90;;;;;;;21.55;75.05;98909.81;6247114;23;20550;-87
2023/06/29 01:29:33;;;;;;;8.43;3.90;;;;;;;21.60;74.71;98912.88;6246594;23;20208;-87
2023/06/29 01:32:03;;;;;;;9.63;4.93;;;;;;;21.70;74.10;98918.94;6220179;23;20149;-87
2023/06/29 01:34:31;;;;;;;7.83;4.50;;;;;;;21.73;72.88;98918.63;6220201;23;20141;-87
2023/06/29 01:37:09;;;;;;;5.77;3.37;;;;;;;21.57;73.28;98919.34;6220206;23;20153;-87
2023/06/29 01:40:00;;;;;;;8.13;4.13;;;;;;;21.57;72.52;98923.84;6246711;23;20160;-87
2023/06/29 01:42:26;;;;;;;7.53;4.00;;;;;;;21.37;72.79;98924.03;6228389;23;20180;-87
2023/06/29 01:44:54;;;;;;;5.33;3.30;;;;;;;21.27;73.29;98917.94;6246845;23;20145;-88
2023/06/29 01:47:21;;;;;;;8.20;3.73;;;;;;;21.17;74.11;98919.84;6219651;23;20488;-88
2023/06/29 01:49:48;;;;;;;7.50;4.23;;;;;;;20.97;74.71;98912.94;6220300;23;20240;-88
2023/06/29 01:52:14;;;;;;;7.53;3.60;;;;;;;20.90;74.06;98908.38;6219885;23;20572;-86
2023/06/29 01:54:39;;;;;;;6.63;3.47;;;;;;;20.71;75.35;98912.84;6219708;23;20589;-87
2023/06/29 01:57:06;;;;;;;7.57;4.37;;;;;;;20.83;75.18;98913.50;6246285;23;20156;-87
2023/06/29 01:59:31;;;;;;;10.87;3.90;;;;;;;20.91;74.16;98923.41;6246669;23;20592;-86
2023/06/29 02:01:56;;;;;;;6.37;3.60;;;;;;;20.88;74.64;98926.34;6246537;23;20208;-87
2023/06/29 02:04:22;;;;;;;9.47;4.10;;;;;;;20.82;75.43;98919.78;6246096;23;20207;-87
2023/06/29 02:06:47;;;;;;;7.37;3.57;;;;;;;20.82;75.14;98938.44;6219657;23;20153;-86
2023/06/29 02:09:13;;;;;;;8.43;4.43;;;;;;;20.85;74.75;98930.16;6246251;23;20144;-86
2023/06/29 02:11:38;;;;;;;7.23;3.90;;;;;;;20.82;74.92;98922.47;6219640;23;20157;-87
2023/06/29 02:14:04;;;;;;;11.73;3.70;;;;;;;20.68;75.81;98920.28;6219759;23;20222;-86
2023/06/29 02:16:29;;;;;;;6.17;3.73;;;;;;;20.67;75.27;98922.16;6219728;23;20480;-87
2023/06/29 02:18:54;;;;;;;8.80;3.97;;;;;;;20.32;77.49;98940.66;6246030;23;20156;-86
2023/06/29 02:21:20;;;;;;;9.27;3.97;;;;;;;20.39;77.33;98940.94;6219335;23;20164;-85
2023/06/29 02:23:45;;;;;;;9.90;4.13;;;;;;;20.18;77.76;98930.44;6246046;23;20177;-86
2023/06/29 02:26:11;;;;;;;5.30;2.90;;;;;;;20.04;77.80;98922.97;6246117;23;20585;-86
2023/06/29 02:28:37;;;;;;;8.67;3.87;;;;;;;19.90;78.60;98956.19;6246167;23;20453;-86
2023/06/29 02:31:02;;;;;;;6.40;3.57;;;;;;;20.04;77.55;98958.41;6246138;23;20156;-84
2023/06/29 02:33:28;;;;;;;7.90;3.20;;;;;;;19.54;79.23;98970.22;6245928;23;20171;-84
2023/06/29 02:35:53;;;;;;;4.80;2.73;;;;;;;19.30;79.62;98946.69;6246079;23;20153;-86
2023/06/29 02:38:19;;;;;;;8.70;3.03;;;;;;;19.43;79.26;98930.50;6246027;23;20157;-86
2023/06/29 02:40:44;;;;;;;4.37;2.40;;;;;;;19.46;78.49;98948.81;6246104;23;20248;-87
2023/06/29 02:43:10;;;;;;;4.47;2.77;;;;;;;19.42;78.31;98947.41;6246729;23;20237;-88
2023/06/29 02:45:36;;;;;;;5.03;3.17;;;;;;;19.32;78.89;98958.03;6246059;23;20211;-87
2023/06/29 02:48:01;;;;;;;6.70;3.13;;;;;;;19.22;79.79;98959.84;6219619;23;20577;-87
2023/06/29 02:50:29;;;;;;;8.40;2.90;;;;;;;19.25;79.51;98956.06;6219102;23;20215;-88
2023/06/29 02:52:55;;;;;;;7.30;2.77;;;;;;;19.29;79.68;98962.78;6195082;23;20208;-87
2023/06/29 02:55:23;;;;;;;10.70;3.37;;;;;;;19.13;79.80;98965.16;6245873;23;20217;-87
2023/06/29 02:57:49;;;;;;;6.43;2.97;;;;;;;19.11;80.31;98969.75;6246099;23;20150;-86
2023/06/29 03:00:16;;;;;;;5.73;3.23;;;;;;;19.10;80.19;98970.75;6219619;23;20255;-86
2023/06/29 03:02:43;;;;;;;4.93;2.77;;;;;;;19.11;80.51;98961.78;6246338;23;20177;-86
2023/06/29 03:05:09;;;;;;;7.77;3.30;;;;;;;19.29;79.53;98949.47;6245998;23;20202;-87
2023/06/29 03:07:35;;;;;;;6.50;3.10;;;;;;;19.44;77.80;98958.78;6245742;23;20569;-87
2023/06/29 03:10:02;;;;;;;6.30;3.63;;;;;;;19.50;77.54;98966.16;6245968;23;20148;-87
2023/06/29 03:12:29;;;;;;;4.97;2.87;;;;;;;19.51;77.51;98971.34;6245873;23;20145;-87
2023/06/29 03:14:55;;;;;;;5.77;3.17;;;;;;;19.56;77.45;98971.75;6246044;23;20237;-87
2023/06/29 03:17:24;;;;;;;4.53;2.73;;;;;;;19.46;77.95;98956.81;6245964;23;20149;-88
2023/06/29 03:19:49;;;;;;;6.60;3.07;;;;;;;19.58;77.12;98956.50;6245941;23;20145;-87
2023/06/29 03:22:16;;;;;;;5.50;2.87;;;;;;;19.58;77.54;98951.19;6245843;23;20187;-87
2023/06/29 03:24:43;;;;;;;5.87;3.20;;;;;;;19.70;76.66;98965.19;6245900;23;20150;-88
2023/06/29 03:27:08;;;;;;;6.77;3.03;;;;;;;19.56;77.38;98954.97;6246948;23;20149;-87
2023/06/29 03:29:35;;;;;;;6.20;3.47;;;;;;;19.47;78.56;98958.50;6245485;23;20156;-87
2023/06/29 03:32:02;;;;;;;5.73;3.17;;;;;;;19.53;77.51;98964.06;6245488;23;20290;-87
2023/06/29 03:34:28;;;;;;;4.23;2.50;;;;;;;19.61;77.65;98971.34;6245625;23;20149;-88
2023/06/29 03:36:57;;;;;;;5.70;2.90;;;;;;;19.61;76.91;98966.03;6245655;23;20609;-88
2023/06/29 03:39:22;;;;;;;4.43;2.83;;;;;;;19.36;78.26;98969.22;6245304;23;20188;-88
2023/06/29 03:41:49;;;;;;;5.37;2.83;;;;;;;19.49;77.74;98969.81;6219392;23;20185;-87
2023/06/29 03:44:15;;;;;;;8.00;2.60;;;;;;;19.48;77.65;98984.91;6246271;23;20161;-88
2023/06/29 03:46:42;;;;;;;4.77;2.47;;;;;;;19.41;77.82;98975.84;6248002;23;20171;-87
2023/06/29 03:49:10;;;;;;;4.53;2.33;;;;;;;19.23;78.48;98977.47;6221177;23;20644;-87
2023/06/29 03:51:37;;;;;;;6.57;2.80;;;;;;;19.32;77.54;98967.81;6247751;23;20209;-88
2023/06/29 03:54:02;;;;;;;4.03;2.57;;;;;;;19.39;77.20;98956.50;6246005;23;20149;-87
2023/06/29 03:56:28;;;;;;;5.40;2.23;;;;;;;19.55;76.27;98966.56;6218872;23;20247;-87
2023/06/29 03:58:53;;;;;;;7.67;2.67;;;;;;;19.56;76.29;98968.25;6246468;23;20744;-87
2023/06/29 04:01:19;;;;;;;5.67;2.50;;;;;;;19.58;76.36;98961.81;6246725;23;20540;-87
2023/06/29 04:03:44;;;;;;;4.77;2.37;;;;;;;19.54;76.95;98967.56;6245491;23;20219;-87
2023/06/29 04:06:10;;;;;;;4.63;2.47;;;;;;;19.49;77.40;98975.13;6246803;23;20175;-88
2023/06/29 04:08:35;;;;;;;5.33;2.77;;;;;;;19.52;77.22;98972.19;6247220;23;20587;-87
2023/06/29 04:11:01;;;;;;;3.73;2.40;;;;;;;19.57;76.41;98975.28;6220967;23;20157;-88
2023/06/29 04:13:26;;;;;;;8.33;2.63;;;;;;;19.28;76.77;98971.75;6221154;23;20162;-85
2023/06/29 04:15:53;;;;;;;5.60;2.57;;;;;;;19.24;77.73;98972.97;6247524;23;20163;-87
2023/06/29 04:18:18;;;;;;;4.17;2.00;;;;;;;19.23;77.57;98973.97;6246259;23;20152;-86
2023/06/29 04:20:44;;;;;;;3.80;1.93;;;;;;;19.11;78.62;98972.41;6246379;23;20156;-86
2023/06/29 04:23:11;;;;;;;4.27;2.23;;;;;;;19.10;77.84;98976.06;6220369;23;20669;-87
2023/06/29 04:25:37;;;;;;;3.97;2.17;;;;;;;19.05;75.80;98978.28;6247313;23;20176;-87
2023/06/29 04:28:02;;;;;;;9.30;2.90;;;;;;;19.15;75.77;98979.13;6220450;23;20565;-86
2023/06/29 04:30:28;;;;;;;5.60;2.80;;;;;;;19.06;76.64;98985.25;6247397;23;20150;-86
2023/06/29 04:32:53;;;;;;;4.27;2.37;;;;;;;19.19;76.32;98993.81;6247349;23;20286;-87
2023/06/29 04:35:18;;;;;;;3.97;1.93;;;;;;;18.85;78.25;98991.53;6247296;23;20302;-86
2023/06/29 04:37:44;;;;;;;4.93;2.40;;;;;;;19.03;78.38;98991.69;6220824;23;20157;-86
2023/06/29 04:40:12;;;;;;;5.13;2.60;;;;;;;19.08;77.39;98993.97;6247662;23;20565;-86
2023/06/29 04:42:45;;;;;;;3.17;2.10;;;;;;;19.12;77.20;99001.50;6247185;23;20231;-86
2023/06/29 04:45:12;;;;;;;4.20;2.37;;;;;;;19.25;76.29;99003.91;6247244;23;20206;-87
2023/06/29 04:47:40;;;;;;;5.43;2.60;;;;;;;19.35;75.41;99004.75;6247235;23;20152;-86
2023/06/29 04:50:07;;;;;;;5.20;2.00;;;;;;;19.36;74.97;99009.94;6247565;23;20149;-86
2023/06/29 04:52:36;;;;;;;5.50;1.83;;;;;;;19.49;74.73;99010.53;6247861;23;20150;-86
2023/06/29 04:55:06;;;;;;;6.63;2.23;;;;;;;19.59;74.45;99023.81;6246813;23;20164;-86
2023/06/29 04:57:32;;;;;;;4.27;2.40;;;;;;;19.55;74.54;99019.75;6221139;23;20165;-85
2023/06/29 04:59:57;;;;;;;8.20;2.27;;;;;;;19.66;74.20;99029.41;6247099;23;20154;-86
2023/06/29 05:02:23;;;;;;;3.83;2.07;;;;;;;19.68;75.15;99027.47;6246973;23;20206;-86
2023/06/29 05:04:49;;;;;;;3.77;1.97;;;;;;;19.75;74.97;99025.91;6247139;23;20228;-86
2023/06/29 05:07:15;;;;;;;4.67;2.53;;;;;;;19.88;73.43;99016.66;6220497;23;20164;-86
2023/06/29 05:09:40;;;;;;;5.63;2.23;;;;;;;19.91;72.53;99016.41;6247404;23;20210;-86
2023/06/29 05:12:06;;;;;;;8.17;2.80;;;;;;;19.92;72.61;99015.41;6247278;23;20143;-87
2023/06/29 05:14:32;;;;;;;5.77;2.37;;;;;;;19.85;73.50;99008.97;6220508;23;20167;-87
2023/06/29 05:16:57;;;;;;;5.50;2.30;;;;;;;19.80;73.83;99013.88;6247340;23;20159;-87
2023/06/29 05:19:23;;;;;;;5.07;2.37;;;;;;;19.82;74.80;99011.06;6221471;23;20157;-86
2023/06/29 05:21:48;;;;;;;6.43;2.20;;;;;;;19.89;74.95;99007.69;6220334;23;20576;-87
2023/06/29 05:24:14;;;;;;;3.97;2.47;;;;;;;19.90;74.80;99013.84;6220370;23;20160;-86
2023/06/29 05:26:39;;;;;;;5.97;2.43;;;;;;;20.03;72.63;99020.56;6246745;23;20145;-86
2023/06/29 05:29:04;;;;;;;5.97;2.57;;;;;;;19.89;72.94;99023.66;6247135;23;20149;-86
2023/06/29 05:31:30;;;;;;;4.50;2.13;;;;;;;19.94;73.84;99036.56;6246655;23;20149;-86
2023/06/29 05:33:55;;;;;;;4.90;2.07;;;;;;;20.04;73.58;99038.22;6220346;23;20224;-86
2023/06/29 05:36:21;;;;;;;2.67;1.50;;;;;;;20.13;71.52;99028.53;6220318;23;20558;-86
2023/06/29 05:38:46;;;;;;;5.13;2.03;;;;;;;20.17;72.26;99027.28;6246753;23;20469;-86
2023/06/29 05:41:12;;;;;;;5.10;2.07;;;;;;;20.01;73.97;99033.19;6220208;23;20555;-85
2023/06/29 05:43:37;;;;;;;5.27;2.53;;;;;;;19.84;74.28;99025.91;6220081;23;20507;-85
2023/06/29 05:46:03;;;;;;;3.43;1.90;;;;;;;19.91;75.65;99032.34;6246628;23;20557;-86
2023/06/29 05:48:28;;;;;;;7.83;1.67;;;;;;;20.08;73.30;99044.06;6246668;23;20146;-86
2023/06/29 05:50:53;;;;;;;6.83;1.97;;;;;;;20.13;73.32;99045.34;6246777;23;20153;-85
2023/06/29 05:53:19;;;;;;;5.53;2.60;;;;;;;20.29;73.72;99049.25;6246537;23;20145;-85
2023/06/29 05:55:44;;;;;;;6.30;2.40;;;;;;;20.25;74.39;99050.53;6246258;23;20316;-85
2023/06/29 05:58:10;;;;;;;3.60;2.10;;;;;;;20.22;74.80;99036.50;6246514;23;20145;-85
2023/06/29 06:00:35;;;;;;;6.20;2.30;;;;;;;20.21;74.79;99033.97;6220033;23;20168;-85
2023/06/29 06:03:00;;;;;;;4.23;2.33;;;;;;;20.48;73.62;99041.22;6246304;23;20601;-86
2023/06/29 06:05:26;;;;;;;4.10;2.40;;;;;;;20.49;72.14;99037.59;6247128;23;20168;-86
2023/06/29 06:07:51;;;;;;;4.00;1.73;;;;;;;20.57;72.20;99013.72;6219340;23;20153;-86
2023/06/29 06:10:17;;;;;;;4.00;2.47;;;;;;;20.60;70.90;99018.75;6220021;23;20181;-86
2023/06/29 06:12:42;;;;;;;4.77;2.03;;;;;;;20.64;70.30;99025.47;6246747;23;20146;-86
2023/06/29 06:15:11;;;;;;;4.40;2.37;;;;;;;20.50;71.11;99031.25;6246258;23;20219;-85
2023/06/29 06:17:37;;;;;;;5.70;2.97;;;;;;;20.57;71.73;99046.50;6247001;23;20159;-85
2023/06/29 06:20:05;;;;;;;4.53;2.47;;;;;;;20.59;71.81;99043.72;6219882;23;20167;-85
2023/06/29 06:22:30;;;;;;;8.27;2.20;;;;;;;20.52;72.59;99029.31;6246252;23;20187;-85
2023/06/29 06:24:56;;;;;;;3.50;1.83;;;;;;;20.78;71.46;99027.63;6246621;23;20231;-86
2023/06/29 06:27:21;;;;;;;6.50;2.77;;;;;;;20.87;70.35;99020.59;6219757;23;20157;-86
2023/06/29 06:29:47;;;;;;;4.90;2.70;;;;;;;20.95;74.59;99029.53;6246299;23;20149;-86
2023/06/29 06:32:12;;;;;;;5.20;2.50;;;;;;;21.25;71.53;99018.56;6246231;23;20526;-86
2023/06/29 06:34:38;;;;;;;5.07;2.50;;;;;;;21.61;71.70;99022.09;6219644;23;20149;-86
2023/06/29 06:37:05;;;;;;;6.90;3.27;;;;;;;22.03;67.53;99022.31;6245981;23;20548;-87
2023/06/29 06:39:34;;;;;;;5.53;2.27;;;;;;;22.36;65.68;99029.53;6219518;23;20176;-87
2023/06/29 06:41:59;;;;;;;4.90;2.80;;;;;;;22.48;64.21;99030.94;6246610;23;20149;-86
2023/06/29 06:44:25;;;;;;;6.50;2.57;;;;;;;22.37;64.33;99023.22;6219708;23;20466;-88
2023/06/29 06:46:51;;;;;;;6.17;2.43;;;;;;;22.70;64.74;99026.91;6246369;23;20469;-87
2023/06/29 06:49:16;;;;;;;8.47;2.40;;;;;;;23.06;62.39;99027.59;6245902;23;20145;-86
2023/06/29 06:51:42;;;;;;;6.47;2.57;;;;;;;22.98;62.62;99022.22;6246197;23;20447;-89
2023/06/29 06:54:07;;;;;;;4.10;2.53;;;;;;;23.04;62.32;99025.06;6246643;23;20168;-88
2023/06/29 06:56:33;;;;;;;8.80;2.47;;;;;;;23.22;61.91;99027.59;6245779;23;20648;-89
2023/06/29 06:58:58;;;;;;;5.13;2.30;;;;;;;23.43;62.83;99030.72;6219533;23;20188;-89
2023/06/29 07:01:25;;;;;;;6.80;2.37;;;;;;;23.56;59.15;99030.22;6219545;23;20200;-88
2023/06/29 07:03:51;;;;;;;5.13;2.30;;;;;;;23.76;61.99;99027.09;6219786;23;20216;-88
2023/06/29 07:06:19;;;;;;;4.67;2.33;;;;;;;24.04;61.11;99030.25;6246152;23;20219;-88
2023/06/29 07:08:45;;;;;;;4.03;2.20;;;;;;;24.09;58.02;99032.44;6245938;23;20207;-88
2023/06/29 07:11:11;;;;;;;5.00;2.50;;;;;;;24.23;60.74;99029.94;6245936;23;20149;-89
2023/06/29 07:13:37;;;;;;;3.37;1.83;;;;;;;24.35;58.76;99030.41;6245967;23;20145;-89
2023/06/29 07:16:06;;;;;;;3.47;2.10;;;;;;;24.35;59.17;99033.09;6246334;23;20175;-91
2023/06/29 07:18:36;;;;;;;4.03;2.20;;;;;;;24.86;59.28;99021.09;6246787;23;20155;-88
2023/06/29 07:21:01;;;;;;;5.13;2.57;;;;;;;25.07;55.35;99015.97;6248085;23;20145;-89
2023/06/29 07:23:27;;;;;;;2.77;1.70;;;;;;;25.33;56.68;99019.19;6248249;23;20176;-90
2023/06/29 07:25:52;;;;;;;4.30;2.30;;;;;;;25.39;52.64;99014.97;6248825;23;20463;-88
2023/06/29 07:28:17;;;;;;;3.80;2.00;;;;;;;25.25;51.58;99021.91;6247893;23;20476;-89
2023/06/29 07:30:45;;;;;;;7.53;1.90;;;;;;;25.19;53.50;99021.75;6248170;23;20145;-90
2023/06/29 07:33:11;;;;;;;4.47;1.97;;;;;;;24.99;54.00;99021.38;6221274;23;20576;-90
2023/06/29 07:35:42;;;;;;;2.93;1.73;;;;;;;25.17;52.68;99023.78;6221914;23;20221;-90
2023/06/29 07:38:16;;;;;;;5.67;2.10;;;;;;;25.43;53.99;99014.41;6248446;23;20167;-91
2023/06/29 07:40:42;;;;;;;3.80;2.03;;;;;;;25.57;53.28;99010.16;6248525;23;20154;-89
2023/06/29 07:43:07;;;;;;;3.43;1.70;;;;;;;25.97;53.05;99017.88;6247720;23;20244;-88
2023/06/29 07:45:33;;;;;;;3.70;1.93;;;;;;;26.21;51.63;99019.53;6248009;23;20596;-90
2023/06/29 07:47:58;;;;;;;3.13;1.90;;;;;;;26.39;52.15;99017.34;6221441;23;20176;-89
2023/06/29 07:50:24;;;;;;;3.93;2.33;;;;;;;26.62;51.32;99017.28;6247663;23;20149;-88
2023/06/29 07:52:50;;;;;;;5.40;2.23;;;;;;;26.67;49.81;99020.25;6221361;23;20149;-89
2023/06/29 07:55:15;;;;;;;3.22;1.67;;;;;;;26.91;49.34;99011.94;6221312;23;20168;-89
2023/06/29 07:58:00;;;;;;;3.50;1.83;;;;;;;27.17;51.09;99006.88;6221323;23;20493;-89
2023/06/29 08:00:26;;;;;;;3.50;2.07;;;;;;;27.22;50.95;99017.91;6248212;23;20152;-89
2023/06/29 08:02:51;;;;;;;7.37;2.60;;;;;;;27.11;47.78;99012.16;6247917;23;20177;-89
2023/06/29 08:05:17;;;;;;;3.80;1.90;;;;;;;27.10;47.48;99016.72;6221173;23;20588;-91
2023/06/29 08:07:43;;;;;;;3.28;2.00;;;;;;;27.11;47.29;99013.00;6221040;23;20156;-89
2023/06/29 08:13:23;;;;;;;2.08;1.30;;;;;;;27.30;45.34;99023.19;6177666;23;20224;-90
2023/06/29 08:16:07;;;;;;;2.70;1.33;;;;;;;27.49;45.66;99021.72;6220255;23;20153;-91
2023/06/29 08:18:32;;;;;;;3.97;1.70;;;;;;;27.80;43.62;99018.75;6221055;23;20152;-90
2023/06/29 08:20:59;;;;;;;7.55;2.10;;;;;;;27.42;42.46;99026.22;6222074;23;20149;-89
2023/06/29 08:23:32;;;;;;;3.17;1.58;;;;;;;27.59;42.32;99024.13;6221096;23;20180;-90
2023/06/29 08:25:57;;;;;;;2.97;1.48;;;;;;;27.78;42.56;99018.09;6247844;23;20187;-89
2023/06/29 08:28:23;;;;;;;5.00;1.90;;;;;;;27.81;42.71;99021.25;6221422;23;20157;-90
2023/06/29 08:30:51;;;;;;;2.40;1.30;;;;;;;27.69;43.54;99017.41;6246839;23;20145;-91
2023/06/29 08:33:17;;;;;;;3.22;1.65;;;;;;;27.81;45.66;99005.06;6220861;23;20145;-89
2023/06/29 08:35:43;;;;;;;3.15;1.60;;;;;;;28.08;43.29;99008.03;6247311;23;20306;-90
2023/06/29 08:38:08;;;;;;;2.97;1.75;;;;;;;28.29;41.93;99016.91;6247384;23;20145;-88
2023/06/29 08:40:35;;;;;;;3.22;1.70;;;;;;;27.96;40.96;99010.41;6221271;23;20236;-89
2023/06/29 08:43:01;;;;;;;2.20;1.52;;;;;;;27.90;42.85;99011.19;6247246;23;20205;-90
2023/06/29 08:45:27;;;;;;;3.58;1.30;;;;;;;27.91;41.98;99008.28;6220545;23;20214;-88
2023/06/29 08:47:53;;;;;;;3.30;1.80;;;;;;;28.28;44.22;98999.06;6220771;23;20157;-89
2023/06/29 08:50:28;;;;;;;3.25;1.50;;;;;;;28.24;41.10;99005.91;6220808;23;20539;-90
2023/06/29 08:52:55;;;;;;;2.95;1.48;;;;;;;28.43;41.50;99005.19;6247193;23;20132;-90
2023/06/29 08:55:21;;;;;;;2.45;1.40;;;;;;;28.53;40.93;98999.44;6247048;23;20588;-90
2023/06/29 08:57:46;;;;;;;2.90;1.50;;;;;;;28.69;39.45;98998.34;6220769;23;20163;-89
2023/06/29 09:00:13;;;;;;;2.58;1.33;;;;;;;28.59;38.97;99007.56;6247631;23;20160;-90
2023/06/29 09:02:38;;;;;;;5.28;2.05;;;;;;;28.73;42.27;98996.88;6247385;23;20181;-91
2023/06/29 09:05:05;;;;;;;2.65;1.63;;;;;;;28.46;41.55;98995.84;6220929;23;20236;-89
2023/06/29 09:07:30;;;;;;;4.93;1.65;;;;;;;28.40;39.93;99000.19;6247074;23;20149;-89
2023/06/29 09:09:56;;;;;;;2.78;1.60;;;;;;;28.52;41.04;99004.00;6247140;23;20565;-90
2023/06/29 09:12:21;;;;;;;4.28;1.70;;;;;;;28.80;42.07;99000.47;6220672;23;20596;-89
2023/06/29 09:14:47;;;;;;;4.25;1.40;;;;;;;28.81;41.05;98992.16;6247143;23;20144;-89
2023/06/29 09:17:18;;;;;;;3.65;1.77;;;;;;;28.59;39.51;99004.88;6220586;23;20153;-90
2023/06/29 09:19:57;;;;;;;3.13;1.65;;;;;;;28.31;40.90;99012.16;6246967;23;20145;-90
2023/06/29 09:22:27;;;;;;;3.42;1.40;;;;;;;28.54;38.83;99001.09;6246908;23;20172;-89
2023/06/29 09:24:58;;;;;;;4.88;2.10;;;;;;;28.75;40.67;98992.16;6247209;23;20137;-90
2023/06/29 09:27:23;;;;;;;2.45;1.23;;;;;;;28.77;39.02;98998.16;6247306;23;20145;-90
2023/06/29 09:29:50;;;;;;;3.33;1.58;;;;;;;28.87;39.06;98979.75;6246819;23;20141;-89
2023/06/29 09:32:21;;;;;;;2.28;1.13;;;;;;;28.79;39.31;98982.59;6246792;23;20151;-93
2023/06/29 09:34:48;;;;;;;2.80;1.65;;;;;;;28.83;37.62;98983.84;6221264;23;20512;-90
2023/06/29 09:37:18;;;;;;;4.50;1.55;;;;;;;28.73;37.10;98975.31;6246576;23;20156;-89
2023/06/29 09:39:58;;;;;;;2.42;1.30;;;;;;;28.75;37.73;98971.38;6220440;23;20468;-90
2023/06/29 09:42:24;;;;;;;11.38;1.83;;;;;;;28.91;40.45;98972.88;6220197;23;20647;-89
2023/06/29 09:44:50;;;;;;;3.13;1.63;;;;;;;28.79;41.69;98977.22;6246648;23;20145;-89
2023/06/29 09:47:17;;;;;;;3.78;1.77;;;;;;;28.76;39.56;98983.00;6246607;23;20211;-89
2023/06/29 09:49:50;;;;;;;2.80;1.45;;;;;;;28.93;40.51;98978.94;6246970;23;20222;-89
2023/06/29 09:52:17;;;;;;;4.28;2.20;;;;;;;29.20;38.81;98967.19;6246989;23;20161;-88
2023/06/29 09:54:43;;;;;;;4.78;1.85;;;;;;;29.59;38.34;98972.69;6219815;23;20201;-89
2023/06/29 09:57:12;;;;;;;2.22;1.25;;;;;;;29.67;39.38;98968.97;6246861;23;20159;-90
2023/06/29 09:59:39;;;;;;;2.92;1.50;;;;;;;29.55;37.60;98970.63;6246833;23;20149;-90
2023/06/29 10:02:11;;;;;;;2.38;1.27;;;;;;;29.53;39.06;98975.41;6246483;23;20210;-89
2023/06/29 10:04:39;;;;;;;3.20;1.63;;;;;;;29.88;37.73;98967.97;6246546;23;20134;-89
2023/06/29 10:07:09;;;;;;;7.30;1.27;;;;;;;29.74;35.08;98967.13;6218765;23;20633;-89
2023/06/29 10:09:39;;;;;;;2.47;1.40;;;;;;;29.43;38.28;98954.19;6243782;23;20481;-89
2023/06/29 10:12:07;;;;;;;2.17;1.27;;;;;;;29.74;37.27;98970.63;6219501;23;20160;-90
2023/06/29 10:14:33;;;;;;;5.07;1.30;;;;;;;29.71;37.33;98965.66;6246391;23;20169;-90
2023/06/29 10:17:02;;;;;;;2.03;1.13;;;;;;;29.97;35.16;98955.91;6219708;23;20149;-89
2023/06/29 10:19:31;;;;;;;2.38;1.35;;;;;;;30.15;36.59;98953.41;6246287;23;20146;-91
2023/06/29 10:22:05;;;;;;;2.75;1.60;;;;;;;29.98;36.32;98957.59;6219746;23;20164;-90
2023/06/29 10:24:35;;;;;;;3.63;1.23;;;;;;;30.12;36.11;98945.72;6219860;23;20141;-89
2023/06/29 10:27:03;;;;;;;2.45;1.10;;;;;;;30.26;36.64;98944.66;6246763;23;20149;-89
2023/06/29 10:29:28;;;;;;;2.72;1.40;;;;;;;30.48;34.88;98943.38;6246634;23;20233;-89
2023/06/29 10:31:58;;;;;;;2.95;1.40;;;;;;;30.57;34.83;98942.13;6219807;23;20526;-89
2023/06/29 10:34:26;;;;;;;2.10;1.00;;;;;;;30.59;37.32;98944.59;6246210;23;20226;-89
2023/06/29 10:36:54;;;;;;;2.38;1.30;;;;;;;30.38;33.14;98940.28;6246335;23;20156;-89
2023/06/29 10:39:42;;;;;;;2.08;1.05;;;;;;;30.67;36.18;98942.50;6219671;23;20684;-88
2023/06/29 10:42:22;;;;;;;2.13;1.15;;;;;;;30.74;38.22;98932.47;6245989;23;20145;-90
2023/06/29 10:44:48;;;;;;;2.80;1.58;;;;;;;30.97;33.48;98940.97;6245942;23;20182;-88
2023/06/29 10:47:27;;;;;;;3.47;1.23;;;;;;;30.93;34.50;98941.59;6246169;23;20145;-90
2023/06/29 10:50:18;;;;;;;2.42;1.33;;;;;;;30.88;34.39;98934.09;6246136;23;20160;-88
2023/06/29 10:52:47;;;;;;;1.90;1.08;;;;;;;31.19;34.11;98930.63;6202985;23;20149;-89
2023/06/29 10:55:18;;;;;;;3.20;1.25;;;;;;;31.29;34.69;98935.59;6245843;23;20275;-88
2023/06/29 10:57:52;;;;;;;2.65;1.02;;;;;;;31.29;34.36;98930.16;6245997;23;20165;-88
2023/06/29 11:00:18;;;;;;;2.38;1.38;;;;;;;31.63;32.47;98937.03;6246399;23;20192;-88
2023/06/29 11:02:46;;;;;;;2.75;1.15;;;;;;;31.65;33.93;98935.78;6245875;23;20496;-89
2023/06/29 11:05:16;;;;;;;2.72;1.42;;;;;;;31.86;32.57;98935.38;6245936;23;20218;-88
2023/06/29 11:07:43;;;;;;;2.58;1.20;;;;;;;31.94;32.87;98924.28;6219356;23;20565;-88
2023/06/29 11:10:09;;;;;;;2.30;1.08;;;;;;;32.01;30.82;98930.47;6245938;23;20156;-88
2023/06/29 11:12:38;;;;;;;2.60;1.23;;;;;;;31.96;32.92;98919.44;6245781;23;20141;-90
2023/06/29 11:15:15;;;;;;;3.65;1.33;;;;;;;31.99;31.44;98921.75;6246263;23;20210;-89
2023/06/29 11:17:42;;;;;;;2.53;1.25;;;;;;;32.12;33.16;98927.03;6219369;23;20153;-88
2023/06/29 11:20:13;;;;;;;1.95;1.13;;;;;;;32.03;32.46;98922.09;6245837;23;20148;-88
2023/06/29 11:22:38;;;;;;;1.58;0.98;;;;;;;31.94;35.56;98918.84;6219319;23;20487;-88
2023/06/29 11:25:05;;;;;;;2.92;1.00;;;;;;;32.15;33.11;98915.72;6245744;23;20175;-89
2023/06/29 11:27:30;;;;;;;2.05;0.93;;;;;;;32.43;31.05;98914.41;6219413;23;20149;-89
2023/06/29 11:29:56;;;;;;;1.63;0.90;;;;;;;32.49;31.97;98913.50;6219024;23;20164;-88
2023/06/29 11:32:23;;;;;;;2.70;1.17;;;;;;;32.58;32.29;98907.56;6246127;23;20172;-88
2023/06/29 11:35:00;;;;;;;3.25;1.42;;;;;;;32.54;32.50;98900.94;6219107;23;20157;-88
2023/06/29 11:37:26;;;;;;;2.55;1.17;;;;;;;32.80;32.30;98902.50;6219376;23;20149;-89